sensor_id;sensor_type;location;lat;lon;timestamp;temperature;humidity
36716;DHT22;22699;51.034;3.730;2023-06-14T00:02:14;22.90;70.70
36716;DHT22;22699;51.034;3.730;2023-06-14T00:04:41;22.90;70.90
36716;DHT22;22699;51.034;3.730;2023-06-14T00:07:10;22.90;71.00
36716;DHT22;22699;51.034;3.730;2023-06-14T00:09:35;22.90;71.00
36716;DHT22;22699;51.034;3.730;2023-06-14T00:12:01;22.80;71.20
36716;DHT22;22699;51.034;3.730;2023-06-14T00:14:28;22.80;71.30
36716;DHT22;22699;51.034;3.730;2023-06-14T00:16:55;22.80;71.60
36716;DHT22;22699;51.034;3.730;2023-06-14T00:19:25;22.70;71.80
36716;DHT22;22699;51.034;3.730;2023-06-14T00:21:51;22.60;72.10
36716;DHT22;22699;51.034;3.730;2023-06-14T00:24:18;22.60;71.90
36716;DHT22;22699;51.034;3.730;2023-06-14T00:26:44;22.60;71.80
36716;DHT22;22699;51.034;3.730;2023-06-14T00:29:11;22.60;71.70
36716;DHT22;22699;51.034;3.730;2023-06-14T00:31:38;22.60;71.60
36716;DHT22;22699;51.034;3.730;2023-06-14T00:34:05;22.60;71.60
36716;DHT22;22699;51.034;3.730;2023-06-14T00:36:31;22.60;71.50
36716;DHT22;22699;51.034;3.730;2023-06-14T00:38:57;22.60;71.70
36716;DHT22;22699;51.034;3.730;2023-06-14T00:41:23;22.50;71.60
36716;DHT22;22699;51.034;3.730;2023-06-14T00:43:50;22.50;71.80
36716;DHT22;22699;51.034;3.730;2023-06-14T00:46:16;22.50;71.70
36716;DHT22;22699;51.034;3.730;2023-06-14T00:48:44;22.50;72.60
36716;DHT22;22699;51.034;3.730;2023-06-14T00:51:10;22.40;72.00
36716;DHT22;22699;51.034;3.730;2023-06-14T00:53:36;22.30;72.10
36716;DHT22;22699;51.034;3.730;2023-06-14T00:56:04;22.30;72.50
36716;DHT22;22699;51.034;3.730;2023-06-14T00:58:32;22.30;71.80
36716;DHT22;22699;51.034;3.730;2023-06-14T01:00:58;22.20;71.90
36716;DHT22;22699;51.034;3.730;2023-06-14T01:03:23;22.20;71.80
36716;DHT22;22699;51.034;3.730;2023-06-14T01:06:15;22.20;72.10
36716;DHT22;22699;51.034;3.730;2023-06-14T01:11:28;22.20;71.80
36716;DHT22;22699;51.034;3.730;2023-06-14T01:13:56;22.10;71.80
36716;DHT22;22699;51.034;3.730;2023-06-14T01:16:23;22.20;72.00
36716;DHT22;22699;51.034;3.730;2023-06-14T01:18:49;22.10;72.20
36716;DHT22;22699;51.034;3.730;2023-06-14T01:21:24;22.00;71.80
36716;DHT22;22699;51.034;3.730;2023-06-14T01:23:51;22.00;71.80
36716;DHT22;22699;51.034;3.730;2023-06-14T01:26:22;22.00;71.80
36716;DHT22;22699;51.034;3.730;2023-06-14T01:28:51;22.00;71.70
36716;DHT22;22699;51.034;3.730;2023-06-14T01:31:20;22.00;71.60
36716;DHT22;22699;51.034;3.730;2023-06-14T01:33:48;21.90;71.70
36716;DHT22;22699;51.034;3.730;2023-06-14T01:36:19;21.80;71.80
36716;DHT22;22699;51.034;3.730;2023-06-14T01:38:45;21.80;71.60
36716;DHT22;22699;51.034;3.730;2023-06-14T01:41:11;21.80;71.60
36716;DHT22;22699;51.034;3.730;2023-06-14T01:43:41;21.80;71.50
36716;DHT22;22699;51.034;3.730;2023-06-14T01:46:09;21.80;71.50
36716;DHT22;22699;51.034;3.730;2023-06-14T01:48:36;21.80;71.60
36716;DHT22;22699;51.034;3.730;2023-06-14T01:51:03;21.70;71.70
36716;DHT22;22699;51.034;3.730;2023-06-14T01:53:29;21.60;71.80
36716;DHT22;22699;51.034;3.730;2023-06-14T01:55:55;21.50;72.10
36716;DHT22;22699;51.034;3.730;2023-06-14T01:58:20;21.50;72.20
36716;DHT22;22699;51.034;3.730;2023-06-14T02:00:46;21.50;72.60
36716;DHT22;22699;51.034;3.730;2023-06-14T02:03:13;21.50;71.80
36716;DHT22;22699;51.034;3.730;2023-06-14T02:05:41;21.60;71.70
36716;DHT22;22699;51.034;3.730;2023-06-14T02:08:07;21.50;71.70
36716;DHT22;22699;51.034;3.730;2023-06-14T02:10:33;21.40;71.60
36716;DHT22;22699;51.034;3.730;2023-06-14T02:12:59;21.40;71.60
36716;DHT22;22699;51.034;3.730;2023-06-14T02:15:24;21.30;71.30
36716;DHT22;22699;51.034;3.730;2023-06-14T02:17:55;21.30;71.40
36716;DHT22;22699;51.034;3.730;2023-06-14T02:20:23;21.30;71.20
36716;DHT22;22699;51.034;3.730;2023-06-14T02:22:50;21.30;71.10
36716;DHT22;22699;51.034;3.730;2023-06-14T02:25:16;21.30;71.20
36716;DHT22;22699;51.034;3.730;2023-06-14T02:27:42;21.20;71.30
36716;DHT22;22699;51.034;3.730;2023-06-14T02:30:09;21.20;71.60
36716;DHT22;22699;51.034;3.730;2023-06-14T02:32:35;21.00;71.40
36716;DHT22;22699;51.034;3.730;2023-06-14T02:35:01;21.00;71.10
36716;DHT22;22699;51.034;3.730;2023-06-14T02:37:29;21.00;71.00
36716;DHT22;22699;51.034;3.730;2023-06-14T02:39:56;21.00;71.00
36716;DHT22;22699;51.034;3.730;2023-06-14T02:42:22;21.00;70.80
36716;DHT22;22699;51.034;3.730;2023-06-14T02:44:47;21.00;70.90
36716;DHT22;22699;51.034;3.730;2023-06-14T02:47:17;20.90;70.80
36716;DHT22;22699;51.034;3.730;2023-06-14T02:49:43;20.90;70.80
36716;DHT22;22699;51.034;3.730;2023-06-14T02:52:09;20.90;70.40
36716;DHT22;22699;51.034;3.730;2023-06-14T02:54:35;20.90;70.10
36716;DHT22;22699;51.034;3.730;2023-06-14T02:57:02;20.90;69.90
36716;DHT22;22699;51.034;3.730;2023-06-14T02:59:31;20.90;69.60
36716;DHT22;22699;51.034;3.730;2023-06-14T03:01:57;20.90;69.70
36716;DHT22;22699;51.034;3.730;2023-06-14T03:04:27;20.80;69.70
36716;DHT22;22699;51.034;3.730;2023-06-14T03:06:54;20.90;69.50
36716;DHT22;22699;51.034;3.730;2023-06-14T03:09:23;20.80;69.30
36716;DHT22;22699;51.034;3.730;2023-06-14T03:11:49;20.80;69.30
36716;DHT22;22699;51.034;3.730;2023-06-14T03:14:15;20.80;69.40
36716;DHT22;22699;51.034;3.730;2023-06-14T03:16:45;20.70;69.20
36716;DHT22;22699;51.034;3.730;2023-06-14T03:19:11;20.80;68.80
36716;DHT22;22699;51.034;3.730;2023-06-14T03:21:38;20.70;68.90
36716;DHT22;22699;51.034;3.730;2023-06-14T03:24:09;20.70;68.70
36716;DHT22;22699;51.034;3.730;2023-06-14T03:26:37;20.70;68.50
36716;DHT22;22699;51.034;3.730;2023-06-14T03:29:03;20.70;68.60
36716;DHT22;22699;51.034;3.730;2023-06-14T03:31:29;20.70;68.80
36716;DHT22;22699;51.034;3.730;2023-06-14T03:33:58;20.60;68.10
36716;DHT22;22699;51.034;3.730;2023-06-14T03:36:26;20.60;68.20
36716;DHT22;22699;51.034;3.730;2023-06-14T03:38:52;20.60;68.20
36716;DHT22;22699;51.034;3.730;2023-06-14T03:41:24;20.50;68.20
36716;DHT22;22699;51.034;3.730;2023-06-14T03:43:53;20.50;67.90
36716;DHT22;22699;51.034;3.730;2023-06-14T03:46:22;20.50;68.00
36716;DHT22;22699;51.034;3.730;2023-06-14T03:48:49;20.60;67.90
36716;DHT22;22699;51.034;3.730;2023-06-14T03:51:15;20.50;67.70
36716;DHT22;22699;51.034;3.730;2023-06-14T03:53:41;20.50;67.80
36716;DHT22;22699;51.034;3.730;2023-06-14T03:56:06;20.50;67.70
36716;DHT22;22699;51.034;3.730;2023-06-14T03:58:32;20.50;67.60
36716;DHT22;22699;51.034;3.730;2023-06-14T04:00:58;20.50;67.10
36716;DHT22;22699;51.034;3.730;2023-06-14T04:03:24;20.40;67.20
36716;DHT22;22699;51.034;3.730;2023-06-14T04:05:50;20.40;66.80
36716;DHT22;22699;51.034;3.730;2023-06-14T04:08:15;20.40;66.70
36716;DHT22;22699;51.034;3.730;2023-06-14T04:10:44;20.50;66.50
36716;DHT22;22699;51.034;3.730;2023-06-14T04:13:10;20.50;66.60
36716;DHT22;22699;51.034;3.730;2023-06-14T04:15:39;20.50;66.20
36716;DHT22;22699;51.034;3.730;2023-06-14T04:18:08;20.50;65.70
36716;DHT22;22699;51.034;3.730;2023-06-14T04:20:33;20.50;65.50
36716;DHT22;22699;51.034;3.730;2023-06-14T04:23:14;20.50;65.30
36716;DHT22;22699;51.034;3.730;2023-06-14T04:25:40;20.50;65.30
36716;DHT22;22699;51.034;3.730;2023-06-14T04:28:11;20.50;65.20
36716;DHT22;22699;51.034;3.730;2023-06-14T04:30:37;20.60;64.90
36716;DHT22;22699;51.034;3.730;2023-06-14T04:33:04;20.60;64.60
36716;DHT22;22699;51.034;3.730;2023-06-14T04:35:31;20.60;64.60
36716;DHT22;22699;51.034;3.730;2023-06-14T04:37:58;20.60;64.30
36716;DHT22;22699;51.034;3.730;2023-06-14T04:40:25;20.70;64.10
36716;DHT22;22699;51.034;3.730;2023-06-14T04:42:50;20.60;63.80
36716;DHT22;22699;51.034;3.730;2023-06-14T04:45:16;20.60;63.30
36716;DHT22;22699;51.034;3.730;2023-06-14T04:47:42;20.60;63.40
36716;DHT22;22699;51.034;3.730;2023-06-14T04:50:10;20.60;63.60
36716;DHT22;22699;51.034;3.730;2023-06-14T04:52:38;20.70;63.30
36716;DHT22;22699;51.034;3.730;2023-06-14T04:55:04;20.70;62.90
36716;DHT22;22699;51.034;3.730;2023-06-14T04:57:31;20.70;62.60
36716;DHT22;22699;51.034;3.730;2023-06-14T04:59:57;20.70;62.40
36716;DHT22;22699;51.034;3.730;2023-06-14T05:02:24;20.80;62.60
36716;DHT22;22699;51.034;3.730;2023-06-14T05:04:51;20.80;62.50
36716;DHT22;22699;51.034;3.730;2023-06-14T05:07:16;20.90;62.20
36716;DHT22;22699;51.034;3.730;2023-06-14T05:09:45;20.80;62.40
36716;DHT22;22699;51.034;3.730;2023-06-14T05:12:11;20.80;62.60
36716;DHT22;22699;51.034;3.730;2023-06-14T05:14:37;20.80;62.50
36716;DHT22;22699;51.034;3.730;2023-06-14T05:17:05;20.90;62.10
36716;DHT22;22699;51.034;3.730;2023-06-14T05:19:31;20.90;61.90
36716;DHT22;22699;51.034;3.730;2023-06-14T05:21:57;20.90;62.20
36716;DHT22;22699;51.034;3.730;2023-06-14T05:24:22;21.00;62.10
36716;DHT22;22699;51.034;3.730;2023-06-14T05:26:48;21.00;62.40
36716;DHT22;22699;51.034;3.730;2023-06-14T05:29:14;21.00;62.60
36716;DHT22;22699;51.034;3.730;2023-06-14T05:31:41;21.00;62.20
36716;DHT22;22699;51.034;3.730;2023-06-14T05:34:10;21.10;61.60
36716;DHT22;22699;51.034;3.730;2023-06-14T05:36:35;21.20;62.50
36716;DHT22;22699;51.034;3.730;2023-06-14T05:39:04;21.20;61.60
36716;DHT22;22699;51.034;3.730;2023-06-14T05:41:31;21.30;61.50
36716;DHT22;22699;51.034;3.730;2023-06-14T05:43:57;21.30;61.30
36716;DHT22;22699;51.034;3.730;2023-06-14T05:46:24;21.40;61.20
36716;DHT22;22699;51.034;3.730;2023-06-14T05:48:54;21.40;61.30
36716;DHT22;22699;51.034;3.730;2023-06-14T05:51:20;21.60;60.90
36716;DHT22;22699;51.034;3.730;2023-06-14T05:53:49;21.60;60.80
36716;DHT22;22699;51.034;3.730;2023-06-14T05:56:18;21.50;60.60
36716;DHT22;22699;51.034;3.730;2023-06-14T05:58:45;21.50;60.80
36716;DHT22;22699;51.034;3.730;2023-06-14T06:01:13;21.50;61.00
36716;DHT22;22699;51.034;3.730;2023-06-14T06:03:39;21.50;61.00
36716;DHT22;22699;51.034;3.730;2023-06-14T06:06:05;21.60;61.10
36716;DHT22;22699;51.034;3.730;2023-06-14T06:08:33;21.70;61.10
36716;DHT22;22699;51.034;3.730;2023-06-14T06:10:58;21.80;61.00
36716;DHT22;22699;51.034;3.730;2023-06-14T06:13:27;21.70;60.90
36716;DHT22;22699;51.034;3.730;2023-06-14T06:15:56;21.80;60.80
36716;DHT22;22699;51.034;3.730;2023-06-14T06:18:22;21.90;60.50
36716;DHT22;22699;51.034;3.730;2023-06-14T06:20:49;21.90;60.60
36716;DHT22;22699;51.034;3.730;2023-06-14T06:23:15;21.80;60.80
36716;DHT22;22699;51.034;3.730;2023-06-14T06:25:43;21.90;61.10
36716;DHT22;22699;51.034;3.730;2023-06-14T06:28:08;21.90;61.00
36716;DHT22;22699;51.034;3.730;2023-06-14T06:30:34;22.10;60.90
36716;DHT22;22699;51.034;3.730;2023-06-14T06:33:01;22.20;60.50
36716;DHT22;22699;51.034;3.730;2023-06-14T06:35:27;22.20;60.70
36716;DHT22;22699;51.034;3.730;2023-06-14T06:37:52;22.40;59.80
36716;DHT22;22699;51.034;3.730;2023-06-14T06:40:21;22.60;59.90
36716;DHT22;22699;51.034;3.730;2023-06-14T06:42:48;22.60;59.50
36716;DHT22;22699;51.034;3.730;2023-06-14T06:45:16;22.80;59.10
36716;DHT22;22699;51.034;3.730;2023-06-14T06:47:44;22.70;59.10
36716;DHT22;22699;51.034;3.730;2023-06-14T06:50:13;22.70;59.20
36716;DHT22;22699;51.034;3.730;2023-06-14T06:52:39;22.90;58.90
36716;DHT22;22699;51.034;3.730;2023-06-14T06:55:05;23.10;57.80
36716;DHT22;22699;51.034;3.730;2023-06-14T06:57:32;23.00;57.90
36716;DHT22;22699;51.034;3.730;2023-06-14T06:59:59;23.00;58.80
36716;DHT22;22699;51.034;3.730;2023-06-14T07:02:25;23.10;58.40
36716;DHT22;22699;51.034;3.730;2023-06-14T07:04:53;23.20;57.80
36716;DHT22;22699;51.034;3.730;2023-06-14T07:07:19;23.30;57.60
36716;DHT22;22699;51.034;3.730;2023-06-14T07:09:44;23.50;57.30
36716;DHT22;22699;51.034;3.730;2023-06-14T07:12:11;23.70;56.20
36716;DHT22;22699;51.034;3.730;2023-06-14T07:14:37;23.90;56.60
36716;DHT22;22699;51.034;3.730;2023-06-14T07:17:02;24.60;55.40
36716;DHT22;22699;51.034;3.730;2023-06-14T07:19:28;26.60;52.70
36716;DHT22;22699;51.034;3.730;2023-06-14T07:21:53;29.00;50.70
36716;DHT22;22699;51.034;3.730;2023-06-14T07:24:19;31.20;46.90
36716;DHT22;22699;51.034;3.730;2023-06-14T07:26:46;33.80;44.30
36716;DHT22;22699;51.034;3.730;2023-06-14T07:29:13;36.30;41.80
36716;DHT22;22699;51.034;3.730;2023-06-14T07:31:39;38.30;38.90
36716;DHT22;22699;51.034;3.730;2023-06-14T07:34:05;39.40;37.80
36716;DHT22;22699;51.034;3.730;2023-06-14T07:36:30;40.80;36.20
36716;DHT22;22699;51.034;3.730;2023-06-14T07:38:57;42.30;35.50
36716;DHT22;22699;51.034;3.730;2023-06-14T07:41:23;44.00;34.80
36716;DHT22;22699;51.034;3.730;2023-06-14T07:43:49;45.50;33.70
36716;DHT22;22699;51.034;3.730;2023-06-14T07:46:14;46.80;32.70
36716;DHT22;22699;51.034;3.730;2023-06-14T07:48:40;47.20;32.10
36716;DHT22;22699;51.034;3.730;2023-06-14T07:51:06;46.90;32.00
36716;DHT22;22699;51.034;3.730;2023-06-14T07:53:31;47.00;32.10
36716;DHT22;22699;51.034;3.730;2023-06-14T07:55:57;47.50;32.10
36716;DHT22;22699;51.034;3.730;2023-06-14T07:58:23;47.60;31.40
36716;DHT22;22699;51.034;3.730;2023-06-14T08:00:48;47.30;31.50
36716;DHT22;22699;51.034;3.730;2023-06-14T08:03:15;47.90;31.50
36716;DHT22;22699;51.034;3.730;2023-06-14T08:05:40;48.80;31.10
36716;DHT22;22699;51.034;3.730;2023-06-14T08:08:06;48.70;31.00
36716;DHT22;22699;51.034;3.730;2023-06-14T08:10:32;48.60;31.00
36716;DHT22;22699;51.034;3.730;2023-06-14T08:12:57;49.60;31.00
36716;DHT22;22699;51.034;3.730;2023-06-14T08:15:23;50.40;30.50
36716;DHT22;22699;51.034;3.730;2023-06-14T08:17:48;49.00;30.00
36716;DHT22;22699;51.034;3.730;2023-06-14T08:20:14;49.00;31.10
36716;DHT22;22699;51.034;3.730;2023-06-14T08:22:42;49.70;30.20
36716;DHT22;22699;51.034;3.730;2023-06-14T08:25:08;50.30;30.00
36716;DHT22;22699;51.034;3.730;2023-06-14T08:27:34;49.70;30.00
36716;DHT22;22699;51.034;3.730;2023-06-14T08:30:00;50.80;30.10
36716;DHT22;22699;51.034;3.730;2023-06-14T08:32:25;51.80;29.80
36716;DHT22;22699;51.034;3.730;2023-06-14T08:34:51;52.40;29.40
36716;DHT22;22699;51.034;3.730;2023-06-14T08:37:16;52.70;29.40
36716;DHT22;22699;51.034;3.730;2023-06-14T08:39:42;52.60;29.30
36716;DHT22;22699;51.034;3.730;2023-06-14T08:42:09;53.00;29.50
36716;DHT22;22699;51.034;3.730;2023-06-14T08:44:36;53.70;29.50
36716;DHT22;22699;51.034;3.730;2023-06-14T08:47:01;52.80;29.30
36716;DHT22;22699;51.034;3.730;2023-06-14T08:49:29;52.20;29.40
36716;DHT22;22699;51.034;3.730;2023-06-14T08:52:00;52.70;29.40
36716;DHT22;22699;51.034;3.730;2023-06-14T08:54:29;52.40;29.40
36716;DHT22;22699;51.034;3.730;2023-06-14T08:57:02;54.20;29.30
36716;DHT22;22699;51.034;3.730;2023-06-14T08:59:30;55.10;28.60
36716;DHT22;22699;51.034;3.730;2023-06-14T09:01:59;55.10;28.50
36716;DHT22;22699;51.034;3.730;2023-06-14T09:04:25;54.30;28.20
36716;DHT22;22699;51.034;3.730;2023-06-14T09:06:55;53.60;28.20
36716;DHT22;22699;51.034;3.730;2023-06-14T09:09:22;54.00;28.20
36716;DHT22;22699;51.034;3.730;2023-06-14T09:11:51;54.50;28.20
36716;DHT22;22699;51.034;3.730;2023-06-14T09:14:21;55.70;28.20
36716;DHT22;22699;51.034;3.730;2023-06-14T09:16:46;55.80;28.10
36716;DHT22;22699;51.034;3.730;2023-06-14T09:19:30;54.10;27.80
36716;DHT22;22699;51.034;3.730;2023-06-14T09:21:57;52.20;28.50
36716;DHT22;22699;51.034;3.730;2023-06-14T09:24:24;52.00;28.10
36716;DHT22;22699;51.034;3.730;2023-06-14T09:26:51;51.80;28.20
36716;DHT22;22699;51.034;3.730;2023-06-14T09:29:17;53.20;28.30
36716;DHT22;22699;51.034;3.730;2023-06-14T09:31:45;52.20;28.10
36716;DHT22;22699;51.034;3.730;2023-06-14T09:34:11;53.00;28.10
36716;DHT22;22699;51.034;3.730;2023-06-14T09:36:39;52.90;28.10
36716;DHT22;22699;51.034;3.730;2023-06-14T09:39:05;53.40;28.40
36716;DHT22;22699;51.034;3.730;2023-06-14T09:41:35;52.60;27.80
36716;DHT22;22699;51.034;3.730;2023-06-14T09:44:03;51.40;27.70
36716;DHT22;22699;51.034;3.730;2023-06-14T09:46:30;50.70;28.30
36716;DHT22;22699;51.034;3.730;2023-06-14T09:48:57;50.00;28.10
36716;DHT22;22699;51.034;3.730;2023-06-14T09:51:24;49.40;28.40
36716;DHT22;22699;51.034;3.730;2023-06-14T09:53:50;48.80;28.40
36716;DHT22;22699;51.034;3.730;2023-06-14T09:58:55;48.10;28.70
36716;DHT22;22699;51.034;3.730;2023-06-14T10:01:27;47.00;29.00
36716;DHT22;22699;51.034;3.730;2023-06-14T10:04:02;47.50;29.20
36716;DHT22;22699;51.034;3.730;2023-06-14T10:06:31;47.10;28.90
36716;DHT22;22699;51.034;3.730;2023-06-14T10:08:58;48.20;28.90
36716;DHT22;22699;51.034;3.730;2023-06-14T10:11:26;48.40;28.60
36716;DHT22;22699;51.034;3.730;2023-06-14T10:13:55;48.00;28.60
36716;DHT22;22699;51.034;3.730;2023-06-14T10:16:30;45.70;29.30
36716;DHT22;22699;51.034;3.730;2023-06-14T10:19:22;42.40;30.00
36716;DHT22;22699;51.034;3.730;2023-06-14T10:21:57;40.20;31.70
36716;DHT22;22699;51.034;3.730;2023-06-14T10:24:33;38.30;32.40
36716;DHT22;22699;51.034;3.730;2023-06-14T10:27:00;36.30;33.40
36716;DHT22;22699;51.034;3.730;2023-06-14T10:29:28;35.00;34.20
36716;DHT22;22699;51.034;3.730;2023-06-14T10:31:59;33.90;35.40
36716;DHT22;22699;51.034;3.730;2023-06-14T10:34:25;33.20;36.20
36716;DHT22;22699;51.034;3.730;2023-06-14T10:39:29;32.20;37.50
36716;DHT22;22699;51.034;3.730;2023-06-14T10:41:56;31.80;37.70
36716;DHT22;22699;51.034;3.730;2023-06-14T10:46:49;31.40;38.70
36716;DHT22;22699;51.034;3.730;2023-06-14T10:49:19;31.20;39.00
36716;DHT22;22699;51.034;3.730;2023-06-14T10:51:55;31.00;39.80
36716;DHT22;22699;51.034;3.730;2023-06-14T10:54:22;30.90;39.30
36716;DHT22;22699;51.034;3.730;2023-06-14T10:56:53;30.80;39.90
36716;DHT22;22699;51.034;3.730;2023-06-14T10:59:21;30.80;39.90
36716;DHT22;22699;51.034;3.730;2023-06-14T11:04:54;30.40;41.40
36716;DHT22;22699;51.034;3.730;2023-06-14T11:07:25;30.30;41.10
36716;DHT22;22699;51.034;3.730;2023-06-14T11:12:41;30.00;40.40
36716;DHT22;22699;51.034;3.730;2023-06-14T11:15:09;30.00;41.00
36716;DHT22;22699;51.034;3.730;2023-06-14T11:17:35;30.10;40.90
36716;DHT22;22699;51.034;3.730;2023-06-14T11:20:11;29.90;40.90
36716;DHT22;22699;51.034;3.730;2023-06-14T11:22:42;29.90;40.50
36716;DHT22;22699;51.034;3.730;2023-06-14T11:25:14;29.90;40.60
36716;DHT22;22699;51.034;3.730;2023-06-14T11:27:42;29.80;40.40
36716;DHT22;22699;51.034;3.730;2023-06-14T11:30:08;29.70;40.10
36716;DHT22;22699;51.034;3.730;2023-06-14T11:32:35;29.70;40.00
36716;DHT22;22699;51.034;3.730;2023-06-14T11:35:02;29.80;39.70
36716;DHT22;22699;51.034;3.730;2023-06-14T11:37:28;29.90;40.40
36716;DHT22;22699;51.034;3.730;2023-06-14T11:39:57;30.00;39.60
36716;DHT22;22699;51.034;3.730;2023-06-14T11:42:27;29.80;40.70
36716;DHT22;22699;51.034;3.730;2023-06-14T11:44:54;29.80;41.60
36716;DHT22;22699;51.034;3.730;2023-06-14T11:47:20;29.80;41.50
36716;DHT22;22699;51.034;3.730;2023-06-14T11:49:46;29.60;41.30
36716;DHT22;22699;51.034;3.730;2023-06-14T11:52:12;29.80;41.40
36716;DHT22;22699;51.034;3.730;2023-06-14T11:54:39;29.70;40.90
36716;DHT22;22699;51.034;3.730;2023-06-14T11:57:09;29.70;41.60
36716;DHT22;22699;51.034;3.730;2023-06-14T11:59:43;29.50;41.60
36716;DHT22;22699;51.034;3.730;2023-06-14T12:02:09;29.50;41.80
36716;DHT22;22699;51.034;3.730;2023-06-14T12:04:35;29.40;41.80
36716;DHT22;22699;51.034;3.730;2023-06-14T12:07:15;29.30;41.60
36716;DHT22;22699;51.034;3.730;2023-06-14T12:09:46;29.40;41.40
36716;DHT22;22699;51.034;3.730;2023-06-14T12:12:35;29.30;41.40
36716;DHT22;22699;51.034;3.730;2023-06-14T12:15:03;29.40;41.70
36716;DHT22;22699;51.034;3.730;2023-06-14T12:17:32;29.60;41.50
36716;DHT22;22699;51.034;3.730;2023-06-14T12:19:58;29.70;41.20
36716;DHT22;22699;51.034;3.730;2023-06-14T12:22:24;29.70;41.10
36716;DHT22;22699;51.034;3.730;2023-06-14T12:24:50;29.60;41.80
36716;DHT22;22699;51.034;3.730;2023-06-14T12:27:17;29.60;42.00
36716;DHT22;22699;51.034;3.730;2023-06-14T12:29:44;29.60;41.80
36716;DHT22;22699;51.034;3.730;2023-06-14T12:32:10;29.50;41.70
36716;DHT22;22699;51.034;3.730;2023-06-14T12:34:36;29.60;41.40
36716;DHT22;22699;51.034;3.730;2023-06-14T12:37:02;29.70;41.90
36716;DHT22;22699;51.034;3.730;2023-06-14T12:39:32;29.70;41.60
36716;DHT22;22699;51.034;3.730;2023-06-14T12:41:58;29.80;42.00
36716;DHT22;22699;51.034;3.730;2023-06-14T12:44:24;29.80;42.30
36716;DHT22;22699;51.034;3.730;2023-06-14T12:46:51;29.80;41.90
36716;DHT22;22699;51.034;3.730;2023-06-14T12:49:19;29.80;42.10
36716;DHT22;22699;51.034;3.730;2023-06-14T12:51:46;29.80;42.30
36716;DHT22;22699;51.034;3.730;2023-06-14T12:54:14;29.80;42.70
36716;DHT22;22699;51.034;3.730;2023-06-14T12:56:43;29.50;41.90
36716;DHT22;22699;51.034;3.730;2023-06-14T12:59:12;29.60;42.20
36716;DHT22;22699;51.034;3.730;2023-06-14T13:01:40;29.90;41.80
36716;DHT22;22699;51.034;3.730;2023-06-14T13:04:07;30.10;41.60
36716;DHT22;22699;51.034;3.730;2023-06-14T13:06:34;30.10;41.40
36716;DHT22;22699;51.034;3.730;2023-06-14T13:09:01;30.20;41.60
36716;DHT22;22699;51.034;3.730;2023-06-14T13:11:27;30.10;41.30
36716;DHT22;22699;51.034;3.730;2023-06-14T13:14:05;29.90;41.30
36716;DHT22;22699;51.034;3.730;2023-06-14T13:16:32;29.70;42.20
36716;DHT22;22699;51.034;3.730;2023-06-14T13:19:01;29.70;42.00
36716;DHT22;22699;51.034;3.730;2023-06-14T13:21:26;29.80;41.30
36716;DHT22;22699;51.034;3.730;2023-06-14T13:23:53;29.70;41.50
36716;DHT22;22699;51.034;3.730;2023-06-14T13:26:19;29.90;41.40
36716;DHT22;22699;51.034;3.730;2023-06-14T13:28:44;30.10;41.40
36716;DHT22;22699;51.034;3.730;2023-06-14T13:31:12;30.10;41.70
36716;DHT22;22699;51.034;3.730;2023-06-14T13:33:39;30.10;41.50
36716;DHT22;22699;51.034;3.730;2023-06-14T13:36:05;29.80;41.60
36716;DHT22;22699;51.034;3.730;2023-06-14T13:38:30;29.70;42.10
36716;DHT22;22699;51.034;3.730;2023-06-14T13:40:57;29.60;41.90
36716;DHT22;22699;51.034;3.730;2023-06-14T13:43:23;29.70;41.80
36716;DHT22;22699;51.034;3.730;2023-06-14T13:45:48;29.90;41.00
36716;DHT22;22699;51.034;3.730;2023-06-14T13:48:15;30.20;41.20
36716;DHT22;22699;51.034;3.730;2023-06-14T13:50:41;30.20;41.20
36716;DHT22;22699;51.034;3.730;2023-06-14T13:53:06;30.10;40.80
36716;DHT22;22699;51.034;3.730;2023-06-14T13:55:32;30.00;40.70
36716;DHT22;22699;51.034;3.730;2023-06-14T13:57:59;29.90;40.90
36716;DHT22;22699;51.034;3.730;2023-06-14T14:00:25;29.90;40.70
36716;DHT22;22699;51.034;3.730;2023-06-14T14:02:52;30.00;40.30
36716;DHT22;22699;51.034;3.730;2023-06-14T14:05:18;29.90;40.20
36716;DHT22;22699;51.034;3.730;2023-06-14T14:07:47;29.80;39.50
36716;DHT22;22699;51.034;3.730;2023-06-14T14:10:13;29.70;40.90
36716;DHT22;22699;51.034;3.730;2023-06-14T14:12:39;29.60;41.20
36716;DHT22;22699;51.034;3.730;2023-06-14T14:15:06;29.80;41.00
36716;DHT22;22699;51.034;3.730;2023-06-14T14:17:38;29.80;41.00
36716;DHT22;22699;51.034;3.730;2023-06-14T14:20:05;29.80;41.30
36716;DHT22;22699;51.034;3.730;2023-06-14T14:22:31;29.70;41.30
36716;DHT22;22699;51.034;3.730;2023-06-14T14:24:57;29.70;41.40
36716;DHT22;22699;51.034;3.730;2023-06-14T14:27:22;29.40;41.50
36716;DHT22;22699;51.034;3.730;2023-06-14T14:29:49;29.30;41.70
36716;DHT22;22699;51.034;3.730;2023-06-14T14:32:14;29.30;41.40
36716;DHT22;22699;51.034;3.730;2023-06-14T14:34:40;29.40;41.40
36716;DHT22;22699;51.034;3.730;2023-06-14T14:37:06;29.60;40.90
36716;DHT22;22699;51.034;3.730;2023-06-14T14:39:31;29.70;41.30
36716;DHT22;22699;51.034;3.730;2023-06-14T14:41:58;29.50;41.50
36716;DHT22;22699;51.034;3.730;2023-06-14T14:44:24;29.40;41.40
36716;DHT22;22699;51.034;3.730;2023-06-14T14:46:49;29.30;41.60
36716;DHT22;22699;51.034;3.730;2023-06-14T14:49:15;29.40;41.80
36716;DHT22;22699;51.034;3.730;2023-06-14T14:51:41;29.60;41.20
36716;DHT22;22699;51.034;3.730;2023-06-14T14:54:07;29.50;41.00
36716;DHT22;22699;51.034;3.730;2023-06-14T14:56:33;29.40;40.90
36716;DHT22;22699;51.034;3.730;2023-06-14T14:59:01;29.70;40.60
36716;DHT22;22699;51.034;3.730;2023-06-14T15:01:29;29.60;40.50
36716;DHT22;22699;51.034;3.730;2023-06-14T15:03:55;29.70;41.00
36716;DHT22;22699;51.034;3.730;2023-06-14T15:06:21;29.70;40.90
36716;DHT22;22699;51.034;3.730;2023-06-14T15:08:46;29.60;40.70
36716;DHT22;22699;51.034;3.730;2023-06-14T15:11:12;29.50;40.60
36716;DHT22;22699;51.034;3.730;2023-06-14T15:13:37;29.50;40.60
36716;DHT22;22699;51.034;3.730;2023-06-14T15:16:03;29.40;40.10
36716;DHT22;22699;51.034;3.730;2023-06-14T15:18:29;29.70;40.00
36716;DHT22;22699;51.034;3.730;2023-06-14T15:20:54;29.70;39.80
36716;DHT22;22699;51.034;3.730;2023-06-14T15:23:22;29.60;39.50
36716;DHT22;22699;51.034;3.730;2023-06-14T15:25:48;29.60;39.80
36716;DHT22;22699;51.034;3.730;2023-06-14T15:28:14;29.40;39.70
36716;DHT22;22699;51.034;3.730;2023-06-14T15:30:40;29.30;40.00
36716;DHT22;22699;51.034;3.730;2023-06-14T15:33:06;29.30;39.90
36716;DHT22;22699;51.034;3.730;2023-06-14T15:35:31;29.30;39.70
36716;DHT22;22699;51.034;3.730;2023-06-14T15:37:57;29.40;39.60
36716;DHT22;22699;51.034;3.730;2023-06-14T15:40:23;29.40;39.60
36716;DHT22;22699;51.034;3.730;2023-06-14T15:42:49;29.40;39.70
36716;DHT22;22699;51.034;3.730;2023-06-14T15:45:15;29.40;39.50
36716;DHT22;22699;51.034;3.730;2023-06-14T15:47:41;29.50;39.30